Airfield :
LOGIN :

Register | Disclaimer

   EN    FR    IT 

 










Legend :    VFR   Marginal VFR   IFR   Intensive IFR   Very Intensive IFR
Visi :
Ceiling :
>= 8 km
>= 3000ft
5 to 8 km
1000 to 3000 ft
1500m to 5 km
500 to 1000 ft
800 to 1500m
200 to 500 ft
< 800m
< 200 ft
Symbols :   Thunderstorms  Fog  Heavy snow  Heavy precipitations  Wind > 20 kt
SIGMETs :     Misc.  Thunderstorms  Icing  Turbulence  Mountain Waves  Volcanic Ashes







- Airport Elevation : 16 ft
- IATA code : AAE


DABB - Annaba-Rabah Bitat

CURRENT METAR :
  • 252130Z 02005KT CAVOK 19/17 Q1014

EXPIRED METARs :
  • 252100Z 03006KT CAVOK 19/17 Q1014
  • 252030Z 03006KT 9999 FEW033 19/17 Q1014
  • 252000Z 05004KT 010V070 9999 FEW033 19/17 Q1013
  • 251930Z 05003KT 9999 FEW033 19/16 Q1013
  • 251900Z 04005KT 9999 FEW033 20/15 Q1013

TAF TAF DABB
Valid from the 25 at 18:00 until the 26 at 18:00 UTC


251700Z 2518/2618 04010KT 9999 FEW033
PROB30
TEMPO 2518/2521 FEW023TCU
BECMG 2520/2522 VRB02KT
No reported NOTAMs for that airfield.
1 SIGMET reported for the Alger FIR (DAAA) :
 
Embedded thunderstorms
DAAA SIGMET 3 VALID 251930/252330 DAMM
DAAA ALGIERS FIR ISOL EMBD TS OBS WI N3633 E00214 - N3537 E00312 - N3510 E00442 - N3433 E00400 - N3420 E00127 - N3510 E00015- N3633 E00214 TOP FL300 MOV E NC=



MET'MAP, your aeronautical weather chart ! - Copyright ORBIFLY December 2007 - Disclaimer

ORBIFLY MET'MAP TEAM :

Programming & Development : Alexandra Zaïnal
Concept & Development : Baudouin d'Aumeries
Co-Development & Prog : Marc-Olivier Méhu
Technical & hardware support : Manuel Goepfert

Contact : metmap@orbifly.com




SOURCES & CREDITS :

   NOAA